Terminal Aerodrome Forecast
Issued by NWS Cleveland, OH

Home | Current Version | Previous Version | Text Only | Print | Product List | Glossary Off
Versions: 1 2 3 4 5 6 7 8 9 10 11 12 13 14 15 16 17 18 19

511
FTUS41 KCLE 201139
TAFERI
TAF
KERI 201139Z 2012/2112 06006KT 4SM BR OVC007
      TEMPO 2012/2013 2SM BR OVC004
     FM201600 10008KT P6SM SCT007 OVC035
     FM201930 06006KT 4SM BR BKN007 BKN050
     FM210000 21012G20KT 5SM -SHRA OVC035
      TEMPO 2100/2103 2SM TSRA OVC020CB
     FM210600 27012KT P6SM SCT020 BKN080
     FM211100 27012KT P6SM BKN020=

USA.gov is the U.S. government's official web portal to all federal, state and local government web resources and services.